createdAt,value
2023-04-10T00:04:38.423Z,96338.19
2023-04-10T00:09:41.356Z,96336.13
2023-04-10T00:14:43.738Z,96340.47
2023-04-10T00:19:46.897Z,96333.34
2023-04-10T00:24:49.341Z,96326.41
2023-04-10T00:29:52.535Z,96328.09
2023-04-10T00:34:57.466Z,96317.91
2023-04-10T00:39:59.936Z,96317.09
2023-04-10T00:45:03.098Z,96314.25
2023-04-10T00:50:05.594Z,96307.94
2023-04-10T00:55:07.890Z,96299.56
2023-04-10T01:00:10.220Z,96304.91
2023-04-10T01:05:12.607Z,96310.66
2023-04-10T01:10:15.768Z,96301.91
2023-04-10T01:15:18.166Z,96305.00
2023-04-10T01:20:21.404Z,96308.28
2023-04-10T01:25:24.170Z,96307.03
2023-04-10T01:30:28.325Z,96314.59
2023-04-10T01:35:31.564Z,96306.66
2023-04-10T01:40:35.589Z,96296.00
2023-04-10T01:45:38.297Z,96295.81
2023-04-10T01:50:40.687Z,96285.47
2023-04-10T01:55:43.842Z,96287.91
2023-04-10T02:00:47.067Z,96283.00
2023-04-10T02:05:49.445Z,96274.47
2023-04-10T02:10:52.154Z,96281.59
2023-04-10T02:15:54.445Z,96283.84
2023-04-10T02:20:57.658Z,96283.66
2023-04-10T02:26:00.305Z,96289.34
2023-04-10T02:31:03.555Z,96283.03
2023-04-10T02:36:07.355Z,96283.03
2023-04-10T02:41:10.066Z,96276.31
2023-04-10T02:46:12.490Z,96284.25
2023-04-10T02:51:15.346Z,96289.94
2023-04-10T02:56:19.031Z,96285.47
2023-04-10T03:01:22.286Z,96286.28
2023-04-10T03:06:27.349Z,96286.28
2023-04-10T03:11:30.614Z,96278.75
2023-04-10T03:16:33.377Z,96277.72
2023-04-10T03:21:35.965Z,96269.97
2023-04-10T03:26:38.866Z,96273.00
2023-04-10T03:31:41.322Z,96274.84
2023-04-10T03:36:44.519Z,96278.94
2023-04-10T03:41:47.583Z,96279.53
2023-04-10T03:46:49.942Z,96277.09
2023-04-10T03:51:52.806Z,96284.22
2023-04-10T03:56:56.611Z,96284.00
2023-04-10T04:01:59.084Z,96284.22
2023-04-10T04:07:01.487Z,96285.03
2023-04-10T04:12:04.190Z,96284.22
2023-04-10T04:17:07.312Z,96281.75
2023-04-10T04:22:09.669Z,96281.34
2023-04-10T04:27:12.745Z,96277.88
2023-04-10T04:32:16.038Z,96285.00
2023-04-10T04:37:19.273Z,96289.28
2023-04-10T04:42:22.081Z,96295.97
2023-04-10T04:47:25.476Z,96306.78
2023-04-10T04:52:28.075Z,96313.72
2023-04-10T04:57:31.239Z,96299.72
2023-04-10T05:02:33.965Z,96295.06
2023-04-10T05:07:37.293Z,96293.59
2023-04-10T05:12:41.847Z,96300.91
2023-04-10T05:17:44.423Z,96292.00
2023-04-10T05:22:47.707Z,96287.28
2023-04-10T05:27:50.921Z,96280.53
2023-04-10T05:32:56.198Z,96273.84
2023-04-10T05:38:00.534Z,96283.09
2023-04-10T05:43:02.941Z,96280.03
2023-04-10T05:48:05.437Z,96291.44
2023-04-10T05:53:08.120Z,96288.97
2023-04-10T05:58:11.393Z,96292.31
2023-04-10T06:03:14.672Z,96299.25
2023-04-10T06:08:17.037Z,96309.44
2023-04-10T06:13:19.321Z,96310.19
2023-04-10T06:18:22.210Z,96312.03
2023-04-10T06:23:25.064Z,96305.78
2023-04-10T06:28:27.377Z,96308.16
2023-04-10T06:33:30.545Z,96294.63
2023-04-10T06:38:37.557Z,96290.44
2023-04-10T06:43:39.881Z,96287.34
2023-04-10T06:48:43.118Z,96284.94
2023-04-10T06:53:45.508Z,96284.63
2023-04-10T06:58:47.765Z,96266.31
2023-04-10T07:03:50.120Z,96275.81
2023-04-10T07:08:52.982Z,96273.19
2023-04-10T07:13:58.410Z,96264.81
2023-04-10T07:19:01.121Z,96266.59
2023-04-10T07:24:03.445Z,96267.59
2023-04-10T07:29:05.776Z,96274.97
2023-04-10T07:34:08.151Z,96274.75
2023-04-10T07:39:10.431Z,96273.81
2023-04-10T07:44:13.303Z,96267.38
2023-04-10T07:49:15.625Z,96269.97
2023-04-10T07:54:18.017Z,96267.31
2023-04-10T07:59:21.194Z,96273.41
2023-04-10T08:04:24.644Z,96274.69
2023-04-10T08:09:27.129Z,96262.50
2023-04-10T08:14:29.884Z,96252.25
2023-04-10T08:19:32.193Z,96258.59
2023-04-10T08:24:34.923Z,96261.16
2023-04-10T08:29:38.063Z,96253.75
2023-04-10T08:34:41.243Z,96261.03
2023-04-10T08:39:43.988Z,96248.78
2023-04-10T08:44:46.832Z,96245.56
2023-04-10T08:49:49.570Z,96256.09
2023-04-10T08:54:51.986Z,96256.44
2023-04-10T08:59:54.399Z,96249.56
2023-04-10T09:04:57.507Z,96244.50
2023-04-10T09:09:59.811Z,96246.34
2023-04-10T09:15:02.137Z,96246.69
2023-04-10T09:20:04.858Z,96236.59
2023-04-10T09:25:08.011Z,96240.38
2023-04-10T09:30:11.135Z,96235.19
2023-04-10T09:35:14.243Z,96231.19
2023-04-10T09:40:16.854Z,96213.44
2023-04-10T09:45:20.438Z,96201.06
2023-04-10T09:50:23.063Z,96196.00
2023-04-10T09:55:26.449Z,96192.66
2023-04-10T10:00:28.848Z,96193.00
2023-04-10T10:05:32.078Z,96186.53
2023-04-10T10:10:35.300Z,96179.28
2023-04-10T10:15:39.628Z,96175.22
2023-04-10T10:20:43.555Z,96169.63
2023-04-10T10:25:46.394Z,96148.06
2023-04-10T10:30:48.802Z,96159.41
2023-04-10T10:35:51.936Z,96150.22
2023-04-10T10:40:54.219Z,96134.63
2023-04-10T10:45:56.626Z,96128.19
2023-04-10T10:50:59.393Z,96117.13
2023-04-10T10:56:01.701Z,96122.75
2023-04-10T11:01:04.253Z,96108.78
2023-04-10T11:06:07.123Z,96102.59
2023-04-10T11:11:09.806Z,96090.22
2023-04-10T11:16:14.281Z,96090.94
2023-04-10T11:21:17.313Z,96078.75
2023-04-10T11:26:20.181Z,96072.22
2023-04-10T11:31:24.030Z,96064.34
2023-04-10T11:36:26.816Z,96066.59
2023-04-10T11:41:30.503Z,96057.06
2023-04-10T11:46:33.059Z,96051.09
2023-04-10T11:51:35.496Z,96045.72
2023-04-10T11:56:37.871Z,96027.28
2023-04-10T12:01:42.763Z,96034.28
2023-04-10T12:06:46.927Z,96026.19
2023-04-10T12:11:49.385Z,96021.88
2023-04-10T12:16:52.782Z,96021.78
2023-04-10T12:21:55.349Z,96022.97
2023-04-10T12:27:00.321Z,96025.03
2023-04-10T12:32:03.949Z,96013.69
2023-04-10T12:37:06.499Z,96016.22
2023-04-10T12:42:09.768Z,96012.88
2023-04-10T12:47:12.880Z,96003.66
2023-04-10T12:52:16.160Z,96012.00
2023-04-10T12:57:18.582Z,95994.13
2023-04-10T13:02:22.048Z,95985.81
2023-04-10T13:07:24.669Z,95983.88
2023-04-10T13:12:27.214Z,95993.41
2023-04-10T13:17:29.568Z,95971.81
2023-04-10T13:22:32.345Z,95967.63
2023-04-10T13:27:34.630Z,95953.81
2023-04-10T13:32:37.272Z,95962.72
2023-04-10T13:37:39.806Z,95940.84
2023-04-10T13:42:42.707Z,95942.22
2023-04-10T13:47:45.438Z,95926.88
2023-04-10T13:52:48.583Z,95912.81
2023-04-10T13:57:50.932Z,95907.47
2023-04-10T14:02:54.333Z,95910.78
2023-04-10T14:07:57.136Z,95905.97
2023-04-10T14:13:11.405Z,95899.56
2023-04-10T14:18:14.815Z,95902.22
2023-04-10T14:23:18.511Z,95877.44
2023-04-10T14:28:29.331Z,95869.25
2023-04-10T14:33:32.961Z,95870.34
2023-04-10T14:38:36.660Z,95866.63
2023-04-10T14:43:41.184Z,95858.59
2023-04-10T14:48:44.184Z,95855.97
2023-04-10T14:53:46.737Z,95863.56
2023-04-10T14:58:49.149Z,95863.41
2023-04-10T15:03:51.713Z,95846.38
2023-04-10T15:08:55.383Z,95843.91
2023-04-10T15:13:58.109Z,95843.31
2023-04-10T15:19:00.827Z,95819.28
2023-04-10T15:24:04.318Z,95812.16
2023-04-10T15:29:07.703Z,95807.13
2023-04-10T15:34:10.366Z,95808.03
2023-04-10T15:39:13.100Z,95804.41
2023-04-10T15:44:15.839Z,95806.06
2023-04-10T15:49:29.904Z,95805.13
2023-04-10T15:54:36.741Z,95807.47
2023-04-10T15:59:39.271Z,95795.63
2023-04-10T16:04:42.246Z,95801.38
2023-04-10T16:09:46.172Z,95797.06
2023-04-10T16:14:48.968Z,95785.53
2023-04-10T16:19:51.397Z,95774.84
2023-04-10T16:24:54.032Z,95779.72
2023-04-10T16:29:56.584Z,95780.06
2023-04-10T16:34:58.945Z,95779.25
2023-04-10T16:40:02.014Z,95768.72
2023-04-10T16:45:04.414Z,95771.75
2023-04-10T16:50:07.194Z,95772.41
2023-04-10T16:55:10.352Z,95768.41
2023-04-10T17:00:14.685Z,95763.56
2023-04-10T17:05:18.175Z,95752.13
2023-04-10T17:10:21.045Z,95751.09
2023-04-10T17:15:23.818Z,95744.38
2023-04-10T17:20:26.615Z,95740.91
2023-04-10T17:25:30.174Z,95723.22
2023-04-10T17:30:32.501Z,95725.72
2023-04-10T17:35:35.694Z,95725.53
2023-04-10T17:40:38.349Z,95721.50
2023-04-10T17:45:41.612Z,95717.81
2023-04-10T17:50:46.091Z,95718.44
2023-04-10T17:55:48.379Z,95711.22
2023-04-10T18:00:50.814Z,95718.28
2023-04-10T18:05:53.143Z,95718.34
2023-04-10T18:10:55.820Z,95714.63
2023-04-10T18:15:58.221Z,95708.75
2023-04-10T18:21:00.515Z,95713.63
2023-04-10T18:26:04.144Z,95708.25
2023-04-10T18:31:08.559Z,95702.63
2023-04-10T18:36:11.055Z,95699.16
2023-04-10T18:41:13.766Z,95694.06
2023-04-10T18:46:16.282Z,95692.72
2023-04-10T18:51:20.368Z,95702.44
2023-04-10T18:56:23.077Z,95700.84
2023-04-10T19:01:28.231Z,95703.50
2023-04-10T19:06:32.323Z,95702.47
2023-04-10T19:11:35.434Z,95706.75
2023-04-10T19:16:37.817Z,95699.22
2023-04-10T19:21:40.210Z,95689.56
2023-04-10T19:26:43.586Z,95682.84
2023-04-10T19:31:45.952Z,95664.63
2023-04-10T19:36:49.129Z,95652.00
2023-04-10T19:41:51.485Z,95651.47
2023-04-10T19:46:54.292Z,95644.72
2023-04-10T19:51:57.054Z,95644.47
2023-04-10T19:56:59.390Z,95649.81
2023-04-10T20:02:02.143Z,95637.47
2023-04-10T20:07:05.370Z,95646.59
2023-04-10T20:12:08.454Z,95643.66
2023-04-10T20:17:11.546Z,95629.69
2023-04-10T20:22:19.336Z,95635.31
2023-04-10T20:27:21.818Z,95629.94
2023-04-10T20:32:24.458Z,95623.25
2023-04-10T20:37:31.260Z,95624.31
2023-04-10T20:42:33.623Z,95624.84
2023-04-10T20:47:36.049Z,95631.53
2023-04-10T20:52:38.699Z,95622.94
2023-04-10T20:57:41.079Z,95630.63
2023-04-10T21:02:44.069Z,95622.31
2023-04-10T21:07:46.924Z,95627.13
2023-04-10T21:12:50.028Z,95620.44
2023-04-10T21:17:53.463Z,95618.00
2023-04-10T21:22:56.054Z,95619.84
2023-04-10T21:27:59.295Z,95623.91
2023-04-10T21:33:02.088Z,95620.69
2023-04-10T21:38:04.676Z,95622.28
2023-04-10T21:43:07.021Z,95623.13
2023-04-10T21:48:09.411Z,95623.34
2023-04-10T21:53:11.868Z,95617.47
2023-04-10T21:58:14.635Z,95611.56
2023-04-10T22:03:19.998Z,95600.28
2023-04-10T22:08:23.647Z,95597.59
2023-04-10T22:13:30.963Z,95570.56
2023-04-10T22:18:33.748Z,95576.47
2023-04-10T22:23:36.178Z,95567.13
2023-04-10T22:28:38.562Z,95548.88
2023-04-10T22:33:41.057Z,95569.78
2023-04-10T22:38:53.740Z,95573.53
2023-04-10T22:43:56.281Z,95562.81
2023-04-10T22:48:58.692Z,95567.63
2023-04-10T22:54:01.381Z,95551.28
2023-04-10T22:59:03.728Z,95551.03
2023-04-10T23:04:06.884Z,95553.69
2023-04-10T23:09:09.999Z,95547.28
2023-04-10T23:14:12.751Z,95544.34
2023-04-10T23:19:15.907Z,95528.56
2023-04-10T23:24:22.987Z,95510.63
2023-04-10T23:29:25.385Z,95514.91
2023-04-10T23:34:28.592Z,95507.16
2023-04-10T23:39:30.978Z,95502.41
2023-04-10T23:44:33.345Z,95497.81
2023-04-10T23:49:35.919Z,95494.38
2023-04-10T23:54:38.283Z,95491.44
2023-04-10T23:59:40.679Z,95481.47
